sensor_id;sensor_type;location;lat;lon;timestamp;P1;durP1;ratioP1;P2;durP2;ratioP2
18752;SDS011;9505;50.882;5.350;2022-08-19T00:01:31;47.53;;;21.67;;
18752;SDS011;9505;50.882;5.350;2022-08-19T00:03:59;39.20;;;19.60;;
18752;SDS011;9505;50.882;5.350;2022-08-19T00:06:27;47.30;;;22.75;;
18752;SDS011;9505;50.882;5.350;2022-08-19T00:08:54;48.60;;;22.63;;
18752;SDS011;9505;50.882;5.350;2022-08-19T00:11:20;50.05;;;23.80;;
18752;SDS011;9505;50.882;5.350;2022-08-19T00:13:46;46.40;;;21.95;;
18752;SDS011;9505;50.882;5.350;2022-08-19T00:16:15;44.30;;;19.83;;
18752;SDS011;9505;50.882;5.350;2022-08-19T00:18:45;49.88;;;22.35;;
18752;SDS011;9505;50.882;5.350;2022-08-19T00:21:11;42.45;;;21.55;;
18752;SDS011;9505;50.882;5.350;2022-08-19T00:23:37;43.20;;;20.20;;
18752;SDS011;9505;50.882;5.350;2022-08-19T00:26:04;39.10;;;20.20;;
18752;SDS011;9505;50.882;5.350;2022-08-19T00:28:31;48.53;;;22.27;;
18752;SDS011;9505;50.882;5.350;2022-08-19T00:30:57;45.85;;;21.15;;
18752;SDS011;9505;50.882;5.350;2022-08-19T00:33:24;50.10;;;22.73;;
18752;SDS011;9505;50.882;5.350;2022-08-19T00:35:50;55.83;;;24.13;;
18752;SDS011;9505;50.882;5.350;2022-08-19T00:38:15;46.58;;;21.85;;
18752;SDS011;9505;50.882;5.350;2022-08-19T00:40:44;43.15;;;22.25;;
18752;SDS011;9505;50.882;5.350;2022-08-19T00:43:12;44.60;;;20.95;;
18752;SDS011;9505;50.882;5.350;2022-08-19T00:45:42;48.22;;;20.92;;
18752;SDS011;9505;50.882;5.350;2022-08-19T00:48:10;49.42;;;23.08;;
18752;SDS011;9505;50.882;5.350;2022-08-19T00:50:36;51.33;;;23.77;;
18752;SDS011;9505;50.882;5.350;2022-08-19T00:53:05;50.10;;;24.08;;
18752;SDS011;9505;50.882;5.350;2022-08-19T00:55:31;51.13;;;23.33;;
18752;SDS011;9505;50.882;5.350;2022-08-19T00:57:59;54.88;;;23.13;;
18752;SDS011;9505;50.882;5.350;2022-08-19T01:00:33;44.88;;;21.27;;
18752;SDS011;9505;50.882;5.350;2022-08-19T01:03:02;44.10;;;21.88;;
18752;SDS011;9505;50.882;5.350;2022-08-19T01:05:32;40.40;;;19.80;;
18752;SDS011;9505;50.882;5.350;2022-08-19T01:08:00;42.55;;;20.65;;
18752;SDS011;9505;50.882;5.350;2022-08-19T01:10:29;42.47;;;20.70;;
18752;SDS011;9505;50.882;5.350;2022-08-19T01:12:58;42.60;;;19.90;;
18752;SDS011;9505;50.882;5.350;2022-08-19T01:15:26;44.45;;;20.50;;
18752;SDS011;9505;50.882;5.350;2022-08-19T01:17:59;52.58;;;22.50;;
18752;SDS011;9505;50.882;5.350;2022-08-19T01:20:35;44.00;;;20.60;;
18752;SDS011;9505;50.882;5.350;2022-08-19T01:23:01;58.38;;;24.48;;
18752;SDS011;9505;50.882;5.350;2022-08-19T01:25:29;51.78;;;22.92;;
18752;SDS011;9505;50.882;5.350;2022-08-19T01:27:58;50.78;;;21.17;;
18752;SDS011;9505;50.882;5.350;2022-08-19T01:30:26;46.83;;;20.63;;
18752;SDS011;9505;50.882;5.350;2022-08-19T01:32:54;58.90;;;22.50;;
18752;SDS011;9505;50.882;5.350;2022-08-19T01:35:22;50.03;;;23.02;;
18752;SDS011;9505;50.882;5.350;2022-08-19T01:37:51;51.20;;;23.88;;
18752;SDS011;9505;50.882;5.350;2022-08-19T01:40:22;53.75;;;21.88;;
18752;SDS011;9505;50.882;5.350;2022-08-19T01:42:51;50.72;;;22.95;;
18752;SDS011;9505;50.882;5.350;2022-08-19T01:45:19;52.17;;;23.08;;
18752;SDS011;9505;50.882;5.350;2022-08-19T01:47:46;56.10;;;24.45;;
18752;SDS011;9505;50.882;5.350;2022-08-19T01:50:12;55.30;;;25.17;;
18752;SDS011;9505;50.882;5.350;2022-08-19T01:52:39;77.88;;;27.90;;
18752;SDS011;9505;50.882;5.350;2022-08-19T01:55:07;66.50;;;26.63;;
18752;SDS011;9505;50.882;5.350;2022-08-19T01:57:36;70.45;;;28.95;;
18752;SDS011;9505;50.882;5.350;2022-08-19T02:00:05;79.55;;;28.42;;
18752;SDS011;9505;50.882;5.350;2022-08-19T02:02:34;66.72;;;27.55;;
18752;SDS011;9505;50.882;5.350;2022-08-19T02:05:00;65.85;;;27.05;;
18752;SDS011;9505;50.882;5.350;2022-08-19T02:07:25;65.57;;;24.60;;
18752;SDS011;9505;50.882;5.350;2022-08-19T02:09:53;57.55;;;24.35;;
18752;SDS011;9505;50.882;5.350;2022-08-19T02:12:20;67.63;;;26.88;;
18752;SDS011;9505;50.882;5.350;2022-08-19T02:14:46;56.50;;;23.73;;
18752;SDS011;9505;50.882;5.350;2022-08-19T02:17:11;63.20;;;24.50;;
18752;SDS011;9505;50.882;5.350;2022-08-19T02:19:37;66.65;;;25.88;;
18752;SDS011;9505;50.882;5.350;2022-08-19T02:22:03;82.35;;;29.17;;
18752;SDS011;9505;50.882;5.350;2022-08-19T02:24:29;68.15;;;25.77;;
18752;SDS011;9505;50.882;5.350;2022-08-19T02:26:55;69.32;;;26.52;;
18752;SDS011;9505;50.882;5.350;2022-08-19T02:29:21;62.45;;;24.95;;
18752;SDS011;9505;50.882;5.350;2022-08-19T02:31:47;64.20;;;24.50;;
18752;SDS011;9505;50.882;5.350;2022-08-19T02:34:14;67.68;;;26.23;;
18752;SDS011;9505;50.882;5.350;2022-08-19T02:36:39;69.95;;;25.50;;
18752;SDS011;9505;50.882;5.350;2022-08-19T02:39:05;72.28;;;25.98;;
18752;SDS011;9505;50.882;5.350;2022-08-19T02:41:31;77.38;;;26.52;;
18752;SDS011;9505;50.882;5.350;2022-08-19T02:43:59;58.22;;;24.88;;
18752;SDS011;9505;50.882;5.350;2022-08-19T02:46:29;71.00;;;26.77;;
18752;SDS011;9505;50.882;5.350;2022-08-19T02:48:57;76.35;;;28.92;;
18752;SDS011;9505;50.882;5.350;2022-08-19T02:51:26;111.68;;;32.42;;
18752;SDS011;9505;50.882;5.350;2022-08-19T02:53:54;101.72;;;29.67;;
18752;SDS011;9505;50.882;5.350;2022-08-19T02:56:20;135.70;;;36.55;;
18752;SDS011;9505;50.882;5.350;2022-08-19T02:58:46;144.90;;;38.30;;
18752;SDS011;9505;50.882;5.350;2022-08-19T03:01:23;167.73;;;42.42;;
18752;SDS011;9505;50.882;5.350;2022-08-19T03:03:54;150.88;;;36.45;;
18752;SDS011;9505;50.882;5.350;2022-08-19T03:06:21;145.55;;;38.50;;
18752;SDS011;9505;50.882;5.350;2022-08-19T03:08:48;200.43;;;43.30;;
18752;SDS011;9505;50.882;5.350;2022-08-19T03:11:19;186.02;;;45.10;;
18752;SDS011;9505;50.882;5.350;2022-08-19T03:13:50;192.68;;;44.67;;
18752;SDS011;9505;50.882;5.350;2022-08-19T03:16:23;153.43;;;38.10;;
18752;SDS011;9505;50.882;5.350;2022-08-19T03:18:50;188.85;;;42.35;;
18752;SDS011;9505;50.882;5.350;2022-08-19T03:21:18;165.02;;;38.95;;
18752;SDS011;9505;50.882;5.350;2022-08-19T03:23:46;196.18;;;40.85;;
18752;SDS011;9505;50.882;5.350;2022-08-19T03:26:12;192.00;;;43.45;;
18752;SDS011;9505;50.882;5.350;2022-08-19T03:28:41;184.38;;;40.58;;
18752;SDS011;9505;50.882;5.350;2022-08-19T03:31:11;184.30;;;40.83;;
18752;SDS011;9505;50.882;5.350;2022-08-19T03:33:39;193.10;;;41.42;;
18752;SDS011;9505;50.882;5.350;2022-08-19T03:36:12;188.13;;;41.92;;
18752;SDS011;9505;50.882;5.350;2022-08-19T03:38:41;196.35;;;40.67;;
18752;SDS011;9505;50.882;5.350;2022-08-19T03:41:10;217.23;;;43.33;;
18752;SDS011;9505;50.882;5.350;2022-08-19T03:43:39;252.55;;;47.78;;
18752;SDS011;9505;50.882;5.350;2022-08-19T03:46:07;223.25;;;43.58;;
18752;SDS011;9505;50.882;5.350;2022-08-19T03:48:40;207.25;;;43.28;;
18752;SDS011;9505;50.882;5.350;2022-08-19T03:51:07;168.60;;;37.40;;
18752;SDS011;9505;50.882;5.350;2022-08-19T03:53:33;177.80;;;41.80;;
18752;SDS011;9505;50.882;5.350;2022-08-19T03:56:00;197.15;;;40.20;;
18752;SDS011;9505;50.882;5.350;2022-08-19T03:58:26;183.55;;;39.95;;
18752;SDS011;9505;50.882;5.350;2022-08-19T04:00:54;192.07;;;41.20;;
18752;SDS011;9505;50.882;5.350;2022-08-19T04:03:23;198.18;;;41.75;;
18752;SDS011;9505;50.882;5.350;2022-08-19T04:05:51;190.60;;;39.85;;
18752;SDS011;9505;50.882;5.350;2022-08-19T04:08:18;198.85;;;40.42;;
18752;SDS011;9505;50.882;5.350;2022-08-19T04:10:47;159.90;;;35.85;;
18752;SDS011;9505;50.882;5.350;2022-08-19T04:13:14;192.80;;;38.33;;
18752;SDS011;9505;50.882;5.350;2022-08-19T04:15:42;160.20;;;36.03;;
18752;SDS011;9505;50.882;5.350;2022-08-19T04:18:09;204.50;;;41.05;;
18752;SDS011;9505;50.882;5.350;2022-08-19T04:20:39;217.13;;;43.90;;
18752;SDS011;9505;50.882;5.350;2022-08-19T04:23:14;235.25;;;45.50;;
18752;SDS011;9505;50.882;5.350;2022-08-19T04:25:41;247.60;;;46.15;;
18752;SDS011;9505;50.882;5.350;2022-08-19T04:28:09;275.48;;;48.20;;
18752;SDS011;9505;50.882;5.350;2022-08-19T04:30:40;244.50;;;43.33;;
18752;SDS011;9505;50.882;5.350;2022-08-19T04:33:17;226.93;;;43.28;;
18752;SDS011;9505;50.882;5.350;2022-08-19T04:35:45;217.73;;;43.38;;
18752;SDS011;9505;50.882;5.350;2022-08-19T04:38:13;240.45;;;42.65;;
18752;SDS011;9505;50.882;5.350;2022-08-19T04:40:41;251.35;;;45.13;;
18752;SDS011;9505;50.882;5.350;2022-08-19T04:43:27;244.15;;;45.03;;
18752;SDS011;9505;50.882;5.350;2022-08-19T04:45:53;278.25;;;47.60;;
18752;SDS011;9505;50.882;5.350;2022-08-19T04:48:19;266.33;;;46.78;;
18752;SDS011;9505;50.882;5.350;2022-08-19T04:50:50;276.00;;;47.45;;
18752;SDS011;9505;50.882;5.350;2022-08-19T04:53:26;264.17;;;47.25;;
18752;SDS011;9505;50.882;5.350;2022-08-19T04:55:54;311.50;;;52.05;;
18752;SDS011;9505;50.882;5.350;2022-08-19T04:58:21;284.13;;;48.63;;
18752;SDS011;9505;50.882;5.350;2022-08-19T05:00:48;257.40;;;45.60;;
18752;SDS011;9505;50.882;5.350;2022-08-19T05:03:14;243.57;;;46.03;;
18752;SDS011;9505;50.882;5.350;2022-08-19T05:05:42;228.32;;;42.80;;
18752;SDS011;9505;50.882;5.350;2022-08-19T05:08:13;216.82;;;42.05;;
18752;SDS011;9505;50.882;5.350;2022-08-19T05:10:45;217.32;;;39.78;;
18752;SDS011;9505;50.882;5.350;2022-08-19T05:13:13;222.38;;;40.83;;
18752;SDS011;9505;50.882;5.350;2022-08-19T05:15:39;235.90;;;44.53;;
18752;SDS011;9505;50.882;5.350;2022-08-19T05:18:05;249.05;;;45.22;;
18752;SDS011;9505;50.882;5.350;2022-08-19T05:20:49;235.30;;;46.88;;
18752;SDS011;9505;50.882;5.350;2022-08-19T05:23:33;236.38;;;45.17;;
18752;SDS011;9505;50.882;5.350;2022-08-19T05:25:59;226.60;;;42.42;;
18752;SDS011;9505;50.882;5.350;2022-08-19T05:28:25;230.60;;;44.88;;
18752;SDS011;9505;50.882;5.350;2022-08-19T05:30:50;222.45;;;43.38;;
18752;SDS011;9505;50.882;5.350;2022-08-19T05:33:16;275.85;;;53.03;;
18752;SDS011;9505;50.882;5.350;2022-08-19T05:35:43;220.30;;;46.47;;
18752;SDS011;9505;50.882;5.350;2022-08-19T05:38:09;280.30;;;52.38;;
18752;SDS011;9505;50.882;5.350;2022-08-19T05:40:36;260.55;;;53.75;;
18752;SDS011;9505;50.882;5.350;2022-08-19T05:43:04;226.10;;;51.40;;
18752;SDS011;9505;50.882;5.350;2022-08-19T05:45:31;230.70;;;53.28;;
18752;SDS011;9505;50.882;5.350;2022-08-19T05:47:57;208.15;;;48.55;;
18752;SDS011;9505;50.882;5.350;2022-08-19T05:50:23;172.20;;;45.65;;
18752;SDS011;9505;50.882;5.350;2022-08-19T05:52:51;165.90;;;43.35;;
18752;SDS011;9505;50.882;5.350;2022-08-19T05:55:17;150.73;;;43.42;;
18752;SDS011;9505;50.882;5.350;2022-08-19T05:57:45;127.95;;;39.22;;
18752;SDS011;9505;50.882;5.350;2022-08-19T06:00:11;112.93;;;37.22;;
18752;SDS011;9505;50.882;5.350;2022-08-19T06:02:39;97.93;;;35.80;;
18752;SDS011;9505;50.882;5.350;2022-08-19T06:05:05;89.60;;;32.95;;
18752;SDS011;9505;50.882;5.350;2022-08-19T06:07:34;75.32;;;31.52;;
18752;SDS011;9505;50.882;5.350;2022-08-19T06:10:01;80.32;;;31.17;;
18752;SDS011;9505;50.882;5.350;2022-08-19T06:12:32;71.00;;;27.77;;
18752;SDS011;9505;50.882;5.350;2022-08-19T06:15:10;71.32;;;27.73;;
18752;SDS011;9505;50.882;5.350;2022-08-19T06:17:37;67.43;;;26.42;;
18752;SDS011;9505;50.882;5.350;2022-08-19T06:20:04;63.00;;;26.83;;
18752;SDS011;9505;50.882;5.350;2022-08-19T06:22:36;60.15;;;26.30;;
18752;SDS011;9505;50.882;5.350;2022-08-19T06:25:03;53.95;;;23.23;;
18752;SDS011;9505;50.882;5.350;2022-08-19T06:27:29;63.08;;;26.13;;
18752;SDS011;9505;50.882;5.350;2022-08-19T06:29:56;52.13;;;23.20;;
18752;SDS011;9505;50.882;5.350;2022-08-19T06:32:22;57.55;;;22.45;;
18752;SDS011;9505;50.882;5.350;2022-08-19T06:34:47;49.70;;;20.98;;
18752;SDS011;9505;50.882;5.350;2022-08-19T06:37:13;49.10;;;22.10;;
18752;SDS011;9505;50.882;5.350;2022-08-19T06:39:40;44.47;;;19.75;;
18752;SDS011;9505;50.882;5.350;2022-08-19T06:42:08;42.40;;;19.83;;
18752;SDS011;9505;50.882;5.350;2022-08-19T06:44:38;41.60;;;19.30;;
18752;SDS011;9505;50.882;5.350;2022-08-19T06:47:06;45.67;;;19.05;;
18752;SDS011;9505;50.882;5.350;2022-08-19T06:49:33;43.88;;;18.83;;
18752;SDS011;9505;50.882;5.350;2022-08-19T06:52:00;47.30;;;18.23;;
18752;SDS011;9505;50.882;5.350;2022-08-19T06:54:26;40.88;;;17.65;;
18752;SDS011;9505;50.882;5.350;2022-08-19T06:56:54;37.40;;;18.58;;
18752;SDS011;9505;50.882;5.350;2022-08-19T06:59:22;41.05;;;17.27;;
18752;SDS011;9505;50.882;5.350;2022-08-19T07:01:52;32.67;;;15.48;;
18752;SDS011;9505;50.882;5.350;2022-08-19T07:04:23;35.95;;;16.33;;
18752;SDS011;9505;50.882;5.350;2022-08-19T07:06:56;37.17;;;16.13;;
18752;SDS011;9505;50.882;5.350;2022-08-19T07:09:26;40.10;;;16.95;;
18752;SDS011;9505;50.882;5.350;2022-08-19T07:11:52;33.85;;;17.20;;
18752;SDS011;9505;50.882;5.350;2022-08-19T07:14:21;33.38;;;15.18;;
18752;SDS011;9505;50.882;5.350;2022-08-19T07:16:49;33.40;;;16.13;;
18752;SDS011;9505;50.882;5.350;2022-08-19T07:19:17;37.47;;;15.30;;
18752;SDS011;9505;50.882;5.350;2022-08-19T07:21:44;36.92;;;15.80;;
18752;SDS011;9505;50.882;5.350;2022-08-19T07:24:12;39.45;;;16.52;;
18752;SDS011;9505;50.882;5.350;2022-08-19T07:26:39;36.97;;;15.27;;
18752;SDS011;9505;50.882;5.350;2022-08-19T07:29:06;40.80;;;16.67;;
18752;SDS011;9505;50.882;5.350;2022-08-19T07:31:32;35.63;;;15.38;;
18752;SDS011;9505;50.882;5.350;2022-08-19T07:34:02;36.22;;;15.23;;
18752;SDS011;9505;50.882;5.350;2022-08-19T07:36:33;38.65;;;14.98;;
18752;SDS011;9505;50.882;5.350;2022-08-19T07:39:04;35.45;;;15.95;;
18752;SDS011;9505;50.882;5.350;2022-08-19T07:41:32;36.08;;;14.77;;
18752;SDS011;9505;50.882;5.350;2022-08-19T07:43:59;38.60;;;15.27;;
18752;SDS011;9505;50.882;5.350;2022-08-19T07:46:28;31.95;;;14.73;;
18752;SDS011;9505;50.882;5.350;2022-08-19T07:48:57;36.00;;;14.70;;
18752;SDS011;9505;50.882;5.350;2022-08-19T07:51:23;32.92;;;13.80;;
18752;SDS011;9505;50.882;5.350;2022-08-19T07:53:49;30.70;;;13.35;;
18752;SDS011;9505;50.882;5.350;2022-08-19T07:56:16;26.88;;;12.73;;
18752;SDS011;9505;50.882;5.350;2022-08-19T07:58:44;34.08;;;13.18;;
18752;SDS011;9505;50.882;5.350;2022-08-19T08:01:12;26.73;;;11.48;;
18752;SDS011;9505;50.882;5.350;2022-08-19T08:03:46;25.33;;;11.43;;
18752;SDS011;9505;50.882;5.350;2022-08-19T08:06:31;21.08;;;10.68;;
18752;SDS011;9505;50.882;5.350;2022-08-19T08:09:16;23.55;;;10.15;;
18752;SDS011;9505;50.882;5.350;2022-08-19T08:11:52;28.33;;;11.13;;
18752;SDS011;9505;50.882;5.350;2022-08-19T08:14:21;22.38;;;10.40;;
18752;SDS011;9505;50.882;5.350;2022-08-19T08:16:52;17.83;;;9.32;;
18752;SDS011;9505;50.882;5.350;2022-08-19T08:19:19;21.90;;;7.95;;
18752;SDS011;9505;50.882;5.350;2022-08-19T08:21:47;22.30;;;8.75;;
18752;SDS011;9505;50.882;5.350;2022-08-19T08:24:14;15.93;;;7.60;;
18752;SDS011;9505;50.882;5.350;2022-08-19T08:26:40;20.38;;;9.02;;
18752;SDS011;9505;50.882;5.350;2022-08-19T08:29:07;23.65;;;9.48;;
18752;SDS011;9505;50.882;5.350;2022-08-19T08:31:35;24.20;;;9.10;;
18752;SDS011;9505;50.882;5.350;2022-08-19T08:34:01;20.65;;;8.73;;
18752;SDS011;9505;50.882;5.350;2022-08-19T08:36:26;22.50;;;9.02;;
18752;SDS011;9505;50.882;5.350;2022-08-19T08:38:52;20.65;;;8.50;;
18752;SDS011;9505;50.882;5.350;2022-08-19T08:43:59;22.05;;;8.85;;
18752;SDS011;9505;50.882;5.350;2022-08-19T08:49:41;22.98;;;10.05;;
18752;SDS011;9505;50.882;5.350;2022-08-19T08:52:22;22.63;;;8.70;;
18752;SDS011;9505;50.882;5.350;2022-08-19T08:54:49;22.55;;;8.93;;
18752;SDS011;9505;50.882;5.350;2022-08-19T09:00:36;17.35;;;9.25;;
18752;SDS011;9505;50.882;5.350;2022-08-19T09:03:02;27.67;;;10.50;;
18752;SDS011;9505;50.882;5.350;2022-08-19T09:08:13;19.00;;;8.68;;
18752;SDS011;9505;50.882;5.350;2022-08-19T09:10:49;25.52;;;10.90;;
18752;SDS011;9505;50.882;5.350;2022-08-19T09:15:51;21.85;;;9.20;;
18752;SDS011;9505;50.882;5.350;2022-08-19T09:18:22;24.77;;;10.60;;
18752;SDS011;9505;50.882;5.350;2022-08-19T09:20:48;27.35;;;10.68;;
18752;SDS011;9505;50.882;5.350;2022-08-19T09:23:14;22.50;;;9.98;;
18752;SDS011;9505;50.882;5.350;2022-08-19T09:25:40;25.83;;;11.02;;
18752;SDS011;9505;50.882;5.350;2022-08-19T09:28:06;30.52;;;11.60;;
18752;SDS011;9505;50.882;5.350;2022-08-19T09:30:34;28.85;;;11.70;;
18752;SDS011;9505;50.882;5.350;2022-08-19T09:33:06;28.67;;;11.52;;
18752;SDS011;9505;50.882;5.350;2022-08-19T09:35:32;34.88;;;11.98;;
18752;SDS011;9505;50.882;5.350;2022-08-19T09:37:58;24.08;;;10.20;;
18752;SDS011;9505;50.882;5.350;2022-08-19T09:40:28;23.30;;;8.15;;
18752;SDS011;9505;50.882;5.350;2022-08-19T09:42:55;16.05;;;7.13;;
18752;SDS011;9505;50.882;5.350;2022-08-19T09:45:22;18.90;;;7.05;;
18752;SDS011;9505;50.882;5.350;2022-08-19T09:47:51;18.58;;;7.25;;
18752;SDS011;9505;50.882;5.350;2022-08-19T09:50:17;18.35;;;7.13;;
18752;SDS011;9505;50.882;5.350;2022-08-19T09:52:43;23.40;;;7.80;;
18752;SDS011;9505;50.882;5.350;2022-08-19T09:55:10;28.25;;;9.13;;
18752;SDS011;9505;50.882;5.350;2022-08-19T09:57:37;21.88;;;7.60;;
18752;SDS011;9505;50.882;5.350;2022-08-19T10:00:04;16.98;;;7.90;;
18752;SDS011;9505;50.882;5.350;2022-08-19T10:02:32;19.33;;;7.53;;
18752;SDS011;9505;50.882;5.350;2022-08-19T10:04:57;18.55;;;7.65;;
18752;SDS011;9505;50.882;5.350;2022-08-19T10:07:41;19.88;;;6.18;;
18752;SDS011;9505;50.882;5.350;2022-08-19T10:10:07;11.00;;;5.15;;
18752;SDS011;9505;50.882;5.350;2022-08-19T10:12:34;15.43;;;5.80;;
18752;SDS011;9505;50.882;5.350;2022-08-19T10:15:01;14.38;;;6.10;;
18752;SDS011;9505;50.882;5.350;2022-08-19T10:17:29;19.25;;;6.30;;
18752;SDS011;9505;50.882;5.350;2022-08-19T10:19:55;13.90;;;5.45;;
18752;SDS011;9505;50.882;5.350;2022-08-19T10:22:21;18.00;;;6.00;;
18752;SDS011;9505;50.882;5.350;2022-08-19T10:24:47;10.57;;;4.18;;
18752;SDS011;9505;50.882;5.350;2022-08-19T10:27:12;10.88;;;4.65;;
18752;SDS011;9505;50.882;5.350;2022-08-19T10:29:39;11.85;;;3.38;;
18752;SDS011;9505;50.882;5.350;2022-08-19T10:32:06;10.23;;;4.20;;
18752;SDS011;9505;50.882;5.350;2022-08-19T10:34:34;9.57;;;3.72;;
18752;SDS011;9505;50.882;5.350;2022-08-19T10:37:02;9.80;;;3.65;;
18752;SDS011;9505;50.882;5.350;2022-08-19T10:39:31;9.80;;;3.63;;
18752;SDS011;9505;50.882;5.350;2022-08-19T10:41:58;10.02;;;3.65;;
18752;SDS011;9505;50.882;5.350;2022-08-19T10:44:24;9.90;;;3.90;;
18752;SDS011;9505;50.882;5.350;2022-08-19T10:46:50;9.30;;;4.00;;
18752;SDS011;9505;50.882;5.350;2022-08-19T10:49:17;8.10;;;3.22;;
18752;SDS011;9505;50.882;5.350;2022-08-19T10:51:44;9.98;;;3.42;;
18752;SDS011;9505;50.882;5.350;2022-08-19T10:54:29;9.73;;;3.88;;
18752;SDS011;9505;50.882;5.350;2022-08-19T10:57:14;12.15;;;3.65;;
18752;SDS011;9505;50.882;5.350;2022-08-19T10:59:40;10.85;;;3.22;;
18752;SDS011;9505;50.882;5.350;2022-08-19T11:02:08;9.88;;;3.63;;
18752;SDS011;9505;50.882;5.350;2022-08-19T11:04:36;11.10;;;4.15;;
18752;SDS011;9505;50.882;5.350;2022-08-19T11:07:03;10.48;;;4.13;;
18752;SDS011;9505;50.882;5.350;2022-08-19T11:09:30;9.93;;;3.67;;
18752;SDS011;9505;50.882;5.350;2022-08-19T11:11:56;7.78;;;3.33;;
18752;SDS011;9505;50.882;5.350;2022-08-19T11:14:22;12.98;;;4.15;;
18752;SDS011;9505;50.882;5.350;2022-08-19T11:16:49;4.72;;;2.65;;
18752;SDS011;9505;50.882;5.350;2022-08-19T11:19:18;9.00;;;3.58;;
18752;SDS011;9505;50.882;5.350;2022-08-19T11:21:45;5.50;;;3.00;;
18752;SDS011;9505;50.882;5.350;2022-08-19T11:24:15;9.70;;;3.15;;
18752;SDS011;9505;50.882;5.350;2022-08-19T11:26:45;6.88;;;2.67;;
18752;SDS011;9505;50.882;5.350;2022-08-19T11:29:13;15.00;;;5.10;;
18752;SDS011;9505;50.882;5.350;2022-08-19T11:31:43;7.93;;;3.05;;
18752;SDS011;9505;50.882;5.350;2022-08-19T11:34:12;13.70;;;4.22;;
18752;SDS011;9505;50.882;5.350;2022-08-19T11:36:43;5.82;;;3.22;;
18752;SDS011;9505;50.882;5.350;2022-08-19T11:39:11;9.70;;;3.85;;
18752;SDS011;9505;50.882;5.350;2022-08-19T11:41:38;14.23;;;3.95;;
18752;SDS011;9505;50.882;5.350;2022-08-19T11:44:04;8.75;;;3.65;;
18752;SDS011;9505;50.882;5.350;2022-08-19T11:46:31;10.32;;;4.10;;
18752;SDS011;9505;50.882;5.350;2022-08-19T11:48:57;11.55;;;3.72;;
18752;SDS011;9505;50.882;5.350;2022-08-19T11:51:25;9.38;;;3.35;;
18752;SDS011;9505;50.882;5.350;2022-08-19T11:53:53;6.10;;;2.47;;
18752;SDS011;9505;50.882;5.350;2022-08-19T11:56:20;8.13;;;3.28;;
18752;SDS011;9505;50.882;5.350;2022-08-19T11:58:47;10.02;;;3.88;;
18752;SDS011;9505;50.882;5.350;2022-08-19T12:01:14;17.65;;;4.88;;
18752;SDS011;9505;50.882;5.350;2022-08-19T12:03:42;7.22;;;3.15;;
18752;SDS011;9505;50.882;5.350;2022-08-19T12:06:11;11.02;;;4.45;;
18752;SDS011;9505;50.882;5.350;2022-08-19T12:08:42;9.10;;;3.33;;
18752;SDS011;9505;50.882;5.350;2022-08-19T12:11:11;8.55;;;3.22;;
18752;SDS011;9505;50.882;5.350;2022-08-19T12:13:38;8.73;;;3.42;;
18752;SDS011;9505;50.882;5.350;2022-08-19T12:16:12;6.38;;;3.10;;
18752;SDS011;9505;50.882;5.350;2022-08-19T12:18:41;11.15;;;4.32;;
18752;SDS011;9505;50.882;5.350;2022-08-19T12:21:18;6.90;;;3.47;;
18752;SDS011;9505;50.882;5.350;2022-08-19T12:23:47;11.25;;;4.13;;
18752;SDS011;9505;50.882;5.350;2022-08-19T12:26:14;16.60;;;4.40;;
18752;SDS011;9505;50.882;5.350;2022-08-19T12:28:40;33.58;;;8.65;;
18752;SDS011;9505;50.882;5.350;2022-08-19T12:31:06;17.40;;;4.80;;
18752;SDS011;9505;50.882;5.350;2022-08-19T12:33:32;26.50;;;7.15;;
18752;SDS011;9505;50.882;5.350;2022-08-19T12:36:02;25.85;;;7.53;;
18752;SDS011;9505;50.882;5.350;2022-08-19T12:38:31;40.85;;;10.18;;
18752;SDS011;9505;50.882;5.350;2022-08-19T12:40:57;15.50;;;4.70;;
18752;SDS011;9505;50.882;5.350;2022-08-19T12:43:23;14.95;;;4.78;;
18752;SDS011;9505;50.882;5.350;2022-08-19T12:45:49;27.27;;;6.93;;
18752;SDS011;9505;50.882;5.350;2022-08-19T12:48:15;31.25;;;7.15;;
18752;SDS011;9505;50.882;5.350;2022-08-19T12:50:42;14.95;;;4.20;;
18752;SDS011;9505;50.882;5.350;2022-08-19T12:53:12;12.05;;;4.03;;
18752;SDS011;9505;50.882;5.350;2022-08-19T12:55:38;11.93;;;3.70;;
18752;SDS011;9505;50.882;5.350;2022-08-19T12:58:04;30.73;;;7.00;;
18752;SDS011;9505;50.882;5.350;2022-08-19T13:00:30;25.73;;;5.85;;
18752;SDS011;9505;50.882;5.350;2022-08-19T13:02:57;15.77;;;4.57;;
18752;SDS011;9505;50.882;5.350;2022-08-19T13:05:25;5.85;;;2.95;;
18752;SDS011;9505;50.882;5.350;2022-08-19T13:07:53;10.73;;;4.13;;
18752;SDS011;9505;50.882;5.350;2022-08-19T13:10:21;29.33;;;7.35;;
18752;SDS011;9505;50.882;5.350;2022-08-19T13:12:49;26.42;;;6.60;;
18752;SDS011;9505;50.882;5.350;2022-08-19T13:15:16;24.10;;;5.95;;
18752;SDS011;9505;50.882;5.350;2022-08-19T13:17:45;9.98;;;3.63;;
18752;SDS011;9505;50.882;5.350;2022-08-19T13:20:13;12.95;;;4.20;;
18752;SDS011;9505;50.882;5.350;2022-08-19T13:22:39;23.92;;;5.43;;
18752;SDS011;9505;50.882;5.350;2022-08-19T13:25:05;25.10;;;6.15;;
18752;SDS011;9505;50.882;5.350;2022-08-19T13:27:32;24.50;;;5.43;;
18752;SDS011;9505;50.882;5.350;2022-08-19T13:29:57;13.20;;;3.25;;
18752;SDS011;9505;50.882;5.350;2022-08-19T13:32:41;28.77;;;6.32;;
18752;SDS011;9505;50.882;5.350;2022-08-19T13:35:26;27.88;;;6.18;;
18752;SDS011;9505;50.882;5.350;2022-08-19T13:37:51;29.50;;;6.53;;
18752;SDS011;9505;50.882;5.350;2022-08-19T13:40:18;21.67;;;4.50;;
18752;SDS011;9505;50.882;5.350;2022-08-19T13:42:47;11.35;;;3.20;;
18752;SDS011;9505;50.882;5.350;2022-08-19T13:45:15;9.18;;;2.88;;
18752;SDS011;9505;50.882;5.350;2022-08-19T13:47:44;20.38;;;5.20;;
18752;SDS011;9505;50.882;5.350;2022-08-19T13:50:12;25.23;;;5.65;;
18752;SDS011;9505;50.882;5.350;2022-08-19T13:52:40;31.40;;;6.78;;
18752;SDS011;9505;50.882;5.350;2022-08-19T13:55:07;12.30;;;3.33;;
18752;SDS011;9505;50.882;5.350;2022-08-19T13:57:34;13.32;;;3.42;;
18752;SDS011;9505;50.882;5.350;2022-08-19T14:00:04;6.65;;;2.38;;
18752;SDS011;9505;50.882;5.350;2022-08-19T14:02:35;12.10;;;3.25;;
18752;SDS011;9505;50.882;5.350;2022-08-19T14:05:03;34.63;;;7.65;;
18752;SDS011;9505;50.882;5.350;2022-08-19T14:07:29;19.52;;;4.55;;
18752;SDS011;9505;50.882;5.350;2022-08-19T14:09:55;10.82;;;2.97;;
18752;SDS011;9505;50.882;5.350;2022-08-19T14:12:21;9.75;;;3.28;;
18752;SDS011;9505;50.882;5.350;2022-08-19T14:14:47;21.80;;;5.22;;
18752;SDS011;9505;50.882;5.350;2022-08-19T14:17:13;32.00;;;7.55;;
18752;SDS011;9505;50.882;5.350;2022-08-19T14:19:38;15.65;;;4.15;;
18752;SDS011;9505;50.882;5.350;2022-08-19T14:22:04;10.07;;;2.90;;
18752;SDS011;9505;50.882;5.350;2022-08-19T14:24:30;21.60;;;5.22;;
18752;SDS011;9505;50.882;5.350;2022-08-19T14:26:57;35.33;;;7.22;;
18752;SDS011;9505;50.882;5.350;2022-08-19T14:29:23;28.92;;;6.82;;
18752;SDS011;9505;50.882;5.350;2022-08-19T14:31:49;17.17;;;4.57;;
18752;SDS011;9505;50.882;5.350;2022-08-19T14:34:14;12.55;;;3.83;;
18752;SDS011;9505;50.882;5.350;2022-08-19T14:36:40;19.48;;;5.18;;
18752;SDS011;9505;50.882;5.350;2022-08-19T14:39:06;23.80;;;6.40;;
18752;SDS011;9505;50.882;5.350;2022-08-19T14:41:33;12.15;;;4.35;;
18752;SDS011;9505;50.882;5.350;2022-08-19T14:43:59;11.23;;;3.80;;
18752;SDS011;9505;50.882;5.350;2022-08-19T14:46:26;23.33;;;6.15;;
18752;SDS011;9505;50.882;5.350;2022-08-19T14:48:53;23.27;;;6.43;;
18752;SDS011;9505;50.882;5.350;2022-08-19T14:51:20;21.45;;;5.65;;
18752;SDS011;9505;50.882;5.350;2022-08-19T14:53:47;7.68;;;2.80;;
18752;SDS011;9505;50.882;5.350;2022-08-19T14:56:18;10.75;;;3.88;;
18752;SDS011;9505;50.882;5.350;2022-08-19T14:58:48;7.45;;;3.42;;